createdAt,value
2022-10-01T00:00:08.873Z,16.16
2022-10-01T00:01:16.798Z,16.28
2022-10-01T00:02:18.996Z,16.14
2022-10-01T00:03:23.546Z,16.45
2022-10-01T00:04:26.749Z,16.22
2022-10-01T00:05:28.869Z,16.13
2022-10-01T00:06:30.990Z,16.28
2022-10-01T00:07:40.885Z,16.67
2022-10-01T00:08:48.180Z,16.29
2022-10-01T00:09:50.312Z,16.24
2022-10-01T00:10:52.871Z,16.42
2022-10-01T00:11:54.975Z,16.39
2022-10-01T00:12:58.906Z,16.38
2022-10-01T00:14:03.725Z,16.20
2022-10-01T00:15:13.296Z,16.17
2022-10-01T00:16:19.614Z,16.36
2022-10-01T00:17:21.856Z,16.26
2022-10-01T00:18:23.993Z,16.26
2022-10-01T00:19:26.324Z,16.26
2022-10-01T00:20:28.547Z,16.27
2022-10-01T00:21:32.274Z,16.39
2022-10-01T00:22:36.290Z,16.45
2022-10-01T00:23:38.702Z,16.46
2022-10-01T00:24:40.897Z,16.56
2022-10-01T00:25:43.724Z,16.38
2022-10-01T00:26:45.970Z,16.27
2022-10-01T00:27:48.144Z,16.25
2022-10-01T00:28:54.713Z,16.59
2022-10-01T00:29:56.911Z,16.27
2022-10-01T00:30:59.872Z,16.14
2022-10-01T00:32:02.138Z,16.29
2022-10-01T00:33:04.337Z,16.28
2022-10-01T00:34:06.566Z,16.35
2022-10-01T00:35:09.867Z,16.56
2022-10-01T00:36:12.212Z,16.42
2022-10-01T00:37:14.753Z,16.35
2022-10-01T00:38:16.873Z,16.44
2022-10-01T00:39:19.304Z,16.46
2022-10-01T00:40:22.706Z,16.62
2022-10-01T00:41:25.442Z,16.55
2022-10-01T00:42:27.734Z,16.23
2022-10-01T00:43:33.541Z,16.68
2022-10-01T00:44:37.387Z,16.33
2022-10-01T00:45:39.567Z,16.32
2022-10-01T00:46:44.852Z,16.47
2022-10-01T00:47:59.222Z,16.55
2022-10-01T00:49:26.192Z,16.50
2022-10-01T00:50:35.034Z,16.62
2022-10-01T00:51:42.209Z,16.64
2022-10-01T00:52:51.150Z,16.43
2022-10-01T00:53:57.324Z,16.64
2022-10-01T00:55:13.441Z,16.84
2022-10-01T00:56:15.712Z,16.21
2022-10-01T00:57:21.832Z,16.13
2022-10-01T00:58:25.245Z,16.47
2022-10-01T00:59:28.555Z,16.36
2022-10-01T01:00:31.133Z,16.10
2022-10-01T01:01:37.321Z,16.45
2022-10-01T01:02:40.866Z,16.39
2022-10-01T01:03:43.084Z,16.35
2022-10-01T01:04:45.192Z,16.30
2022-10-01T01:05:47.861Z,16.10
2022-10-01T01:06:56.595Z,16.47
2022-10-01T01:08:02.924Z,16.28
2022-10-01T01:09:05.080Z,16.27
2022-10-01T01:10:08.168Z,16.42
2022-10-01T01:11:36.276Z,16.62
2022-10-01T01:13:09.400Z,16.67
2022-10-01T01:14:49.380Z,16.72
2022-10-01T01:16:03.982Z,16.54
2022-10-01T01:17:12.919Z,16.47
2022-10-01T01:18:30.170Z,16.12
2022-10-01T01:19:38.149Z,16.55
2022-10-01T01:21:00.022Z,16.34
2022-10-01T01:22:06.941Z,16.21
2022-10-01T01:23:14.665Z,16.42
2022-10-01T01:24:41.788Z,16.40
2022-10-01T01:26:01.080Z,16.37
2022-10-01T01:27:06.882Z,16.48
2022-10-01T01:28:17.816Z,16.50
2022-10-01T01:29:23.120Z,16.36
2022-10-01T01:30:26.584Z,16.20
2022-10-01T01:31:36.365Z,16.38
2022-10-01T01:33:04.612Z,16.20
2022-10-01T01:34:13.068Z,15.84
2022-10-01T01:35:40.589Z,15.90
2022-10-01T01:36:48.234Z,15.71
2022-10-01T01:37:57.247Z,15.73
2022-10-01T01:39:06.450Z,15.75
2022-10-01T01:40:11.401Z,15.71
2022-10-01T01:41:15.572Z,15.87
2022-10-01T01:42:31.191Z,15.99
2022-10-01T01:43:37.933Z,15.62
2022-10-01T01:44:44.480Z,15.68
2022-10-01T01:45:49.414Z,15.77
2022-10-01T01:46:56.394Z,15.59
2022-10-01T01:48:02.156Z,15.36
2022-10-01T01:49:05.333Z,15.25
2022-10-01T01:50:08.251Z,15.28
2022-10-01T01:51:45.673Z,15.41
2022-10-01T01:52:47.926Z,15.08
2022-10-01T01:53:50.225Z,15.16
2022-10-01T01:54:52.458Z,15.31
2022-10-01T01:55:57.144Z,15.08
2022-10-01T01:56:59.639Z,15.35
2022-10-01T01:58:02.995Z,15.39
2022-10-01T01:59:05.533Z,15.11
2022-10-01T02:00:09.234Z,15.17
2022-10-01T02:01:34.671Z,15.49
2022-10-01T02:02:39.377Z,15.34
2022-10-01T02:03:41.767Z,14.94
2022-10-01T02:05:07.179Z,15.27
2022-10-01T02:06:30.288Z,15.35
2022-10-01T02:08:00.428Z,15.32
2022-10-01T02:09:21.916Z,15.14
2022-10-01T02:10:42.167Z,15.26
2022-10-01T02:12:23.946Z,15.26
2022-10-01T02:13:31.907Z,14.99
2022-10-01T02:14:47.397Z,15.32
2022-10-01T02:16:04.580Z,15.33
2022-10-01T02:17:16.570Z,15.25
2022-10-01T02:18:29.102Z,15.17
2022-10-01T02:19:58.282Z,15.21
2022-10-01T02:21:23.803Z,14.98
2022-10-01T02:22:43.708Z,15.12
2022-10-01T02:23:53.858Z,14.87
2022-10-01T02:24:59.807Z,14.76
2022-10-01T02:26:09.559Z,14.88
2022-10-01T02:27:19.118Z,14.64
2022-10-01T02:28:23.529Z,14.83
2022-10-01T02:29:26.239Z,14.55
2022-10-01T02:30:32.183Z,14.81
2022-10-01T02:31:35.824Z,14.68
2022-10-01T02:32:40.605Z,14.73
2022-10-01T02:33:45.798Z,14.52
2022-10-01T02:34:49.950Z,14.49
2022-10-01T02:35:53.635Z,14.74
2022-10-01T02:36:59.458Z,14.56
2022-10-01T02:38:05.901Z,14.58
2022-10-01T02:39:09.600Z,14.41
2022-10-01T02:40:16.173Z,14.68
2022-10-01T02:41:23.981Z,14.77
2022-10-01T02:42:29.418Z,14.58
2022-10-01T02:43:42.960Z,14.50
2022-10-01T02:44:46.992Z,14.37
2022-10-01T02:45:57.663Z,14.47
2022-10-01T02:47:00.249Z,14.36
2022-10-01T02:48:05.494Z,14.78
2022-10-01T02:49:08.259Z,14.55
2022-10-01T02:50:12.803Z,14.43
2022-10-01T02:51:15.788Z,14.35
2022-10-01T02:52:39.844Z,14.57
2022-10-01T02:53:47.226Z,14.33
2022-10-01T02:55:13.554Z,14.44
2022-10-01T02:56:36.601Z,14.48
2022-10-01T02:57:39.184Z,14.05
2022-10-01T02:58:41.963Z,14.18
2022-10-01T02:59:44.412Z,14.06
2022-10-01T03:00:46.547Z,14.11
2022-10-01T03:01:48.793Z,14.11
2022-10-01T03:02:51.036Z,14.07
2022-10-01T03:03:53.919Z,14.29
2022-10-01T03:04:59.306Z,14.11
2022-10-01T03:06:01.404Z,13.89
2022-10-01T03:07:04.446Z,14.05
2022-10-01T03:08:06.656Z,14.14
2022-10-01T03:09:08.799Z,14.19
2022-10-01T03:10:11.923Z,14.11
2022-10-01T03:11:16.117Z,14.03
2022-10-01T03:12:18.382Z,13.97
2022-10-01T03:13:23.405Z,13.94
2022-10-01T03:14:25.846Z,14.17
2022-10-01T03:15:28.467Z,14.03
2022-10-01T03:16:30.575Z,13.82
2022-10-01T03:17:32.755Z,13.98
2022-10-01T03:18:34.929Z,14.05
2022-10-01T03:19:37.085Z,14.01
2022-10-01T03:20:39.195Z,14.02
2022-10-01T03:21:41.343Z,13.95
2022-10-01T03:22:46.818Z,14.23
2022-10-01T03:23:48.973Z,14.09
2022-10-01T03:24:52.342Z,14.19
2022-10-01T03:25:54.475Z,14.14
2022-10-01T03:26:57.150Z,13.98
2022-10-01T03:27:59.302Z,14.14
2022-10-01T03:29:01.445Z,14.11
2022-10-01T03:30:04.079Z,13.92
2022-10-01T03:31:08.632Z,14.30
2022-10-01T03:32:11.659Z,14.11
2022-10-01T03:33:13.760Z,13.84
2022-10-01T03:34:15.931Z,13.80
2022-10-01T03:35:18.143Z,14.00
2022-10-01T03:36:20.352Z,13.96
2022-10-01T03:37:22.535Z,13.97
2022-10-01T03:38:24.681Z,14.05
2022-10-01T03:39:26.764Z,13.88
2022-10-01T03:40:29.019Z,14.26
2022-10-01T03:41:31.339Z,14.13
2022-10-01T03:42:33.609Z,14.08
2022-10-01T03:43:35.951Z,13.92
2022-10-01T03:44:38.162Z,14.11
2022-10-01T03:45:40.305Z,14.29
2022-10-01T03:46:42.502Z,14.46
2022-10-01T03:47:44.588Z,14.22
2022-10-01T03:48:46.737Z,14.19
2022-10-01T03:49:48.823Z,14.12
2022-10-01T03:50:58.965Z,14.16
2022-10-01T03:52:02.381Z,14.06
2022-10-01T03:53:06.437Z,14.01
2022-10-01T03:54:09.374Z,14.10
2022-10-01T03:55:12.032Z,13.91
2022-10-01T03:56:15.141Z,13.91
2022-10-01T03:57:17.258Z,13.75
2022-10-01T03:58:19.832Z,13.96
2022-10-01T03:59:22.092Z,13.95
2022-10-01T04:00:25.551Z,13.96
2022-10-01T04:01:28.118Z,13.79
2022-10-01T04:02:30.603Z,13.58
2022-10-01T04:03:32.793Z,13.60
2022-10-01T04:04:35.011Z,13.79
2022-10-01T04:05:37.205Z,13.90
2022-10-01T04:06:39.318Z,13.74
2022-10-01T04:07:42.519Z,13.89
2022-10-01T04:08:44.810Z,13.93
2022-10-01T04:09:46.923Z,13.90
2022-10-01T04:10:49.532Z,14.11
2022-10-01T04:11:52.744Z,13.82
2022-10-01T04:12:55.537Z,13.95
2022-10-01T04:13:57.974Z,13.98
2022-10-01T04:15:00.335Z,14.19
2022-10-01T04:16:03.952Z,14.17
2022-10-01T04:17:06.090Z,13.92
2022-10-01T04:18:08.491Z,14.07
2022-10-01T04:19:10.625Z,13.82
2022-10-01T04:20:12.778Z,13.63
2022-10-01T04:21:15.533Z,13.76
2022-10-01T04:22:17.659Z,13.68
2022-10-01T04:23:19.772Z,13.57
2022-10-01T04:24:21.942Z,13.62
2022-10-01T04:25:24.093Z,13.64
2022-10-01T04:26:26.208Z,13.78
2022-10-01T04:27:28.388Z,13.73
2022-10-01T04:28:31.476Z,14.13
2022-10-01T04:29:38.005Z,14.02
2022-10-01T04:30:44.733Z,14.03
2022-10-01T04:31:46.936Z,13.79
2022-10-01T04:32:49.161Z,13.81
2022-10-01T04:33:53.249Z,13.99
2022-10-01T04:34:55.417Z,13.97
2022-10-01T04:35:57.547Z,13.99
2022-10-01T04:36:59.672Z,13.82
2022-10-01T04:38:06.760Z,13.99
2022-10-01T04:39:08.872Z,13.97
2022-10-01T04:40:11.437Z,13.83
2022-10-01T04:41:14.819Z,13.69
2022-10-01T04:42:17.002Z,13.77
2022-10-01T04:43:19.100Z,13.80
2022-10-01T04:44:21.275Z,13.82
2022-10-01T04:45:23.611Z,13.89
2022-10-01T04:46:25.886Z,13.96
2022-10-01T04:47:28.126Z,13.97
2022-10-01T04:48:30.282Z,13.80
2022-10-01T04:49:33.490Z,13.75
2022-10-01T04:50:35.666Z,13.81
2022-10-01T04:51:37.842Z,13.89
2022-10-01T04:52:40.075Z,13.91
2022-10-01T04:53:42.153Z,13.89
2022-10-01T04:54:44.265Z,13.95
2022-10-01T04:55:46.663Z,14.07
2022-10-01T04:56:48.773Z,13.88
2022-10-01T04:57:51.021Z,13.62
2022-10-01T04:58:53.166Z,13.91
2022-10-01T04:59:55.393Z,13.92
2022-10-01T05:01:01.792Z,13.99
2022-10-01T05:02:04.498Z,14.07
2022-10-01T05:03:07.081Z,14.18
2022-10-01T05:04:09.239Z,13.95
2022-10-01T05:05:11.397Z,14.07
2022-10-01T05:06:13.562Z,14.00
2022-10-01T05:07:15.689Z,13.96
2022-10-01T05:08:17.824Z,13.93
2022-10-01T05:09:20.005Z,13.84
2022-10-01T05:10:23.086Z,13.90
2022-10-01T05:11:25.475Z,13.73
2022-10-01T05:12:28.399Z,13.79
2022-10-01T05:13:31.781Z,13.80
2022-10-01T05:14:34.184Z,13.90
2022-10-01T05:15:36.414Z,14.16
2022-10-01T05:16:38.607Z,13.80
2022-10-01T05:17:40.889Z,14.03
2022-10-01T05:18:43.418Z,13.97
2022-10-01T05:19:46.693Z,14.02
2022-10-01T05:20:48.887Z,14.12
2022-10-01T05:21:51.904Z,14.21
2022-10-01T05:22:54.846Z,13.90
2022-10-01T05:23:57.008Z,14.00
2022-10-01T05:25:00.366Z,14.04
2022-10-01T05:26:05.581Z,13.97
2022-10-01T05:27:12.184Z,13.81
2022-10-01T05:28:21.162Z,13.95
2022-10-01T05:29:24.442Z,14.01
2022-10-01T05:30:26.599Z,14.06
2022-10-01T05:31:28.774Z,13.97
2022-10-01T05:32:31.397Z,13.96
2022-10-01T05:33:34.156Z,13.69
2022-10-01T05:34:36.761Z,13.83
2022-10-01T05:35:41.103Z,14.19
2022-10-01T05:36:43.319Z,14.19
2022-10-01T05:37:45.475Z,13.86
2022-10-01T05:38:48.531Z,14.10
2022-10-01T05:39:50.666Z,14.20
2022-10-01T05:40:52.840Z,14.21
2022-10-01T05:41:55.583Z,13.87
2022-10-01T05:42:59.106Z,14.11
2022-10-01T05:44:02.963Z,13.87
2022-10-01T05:45:05.428Z,13.83
2022-10-01T05:46:07.782Z,13.87
2022-10-01T05:47:09.980Z,13.87
2022-10-01T05:48:12.829Z,13.84
2022-10-01T05:49:16.064Z,13.99
2022-10-01T05:50:18.255Z,14.12
2022-10-01T05:51:20.367Z,14.10
2022-10-01T05:52:22.523Z,13.97
2022-10-01T05:53:25.063Z,14.10
2022-10-01T05:54:29.440Z,14.18
2022-10-01T05:55:33.231Z,13.97
2022-10-01T05:56:35.812Z,14.05
2022-10-01T05:57:38.882Z,13.79
2022-10-01T05:58:41.208Z,13.81
2022-10-01T05:59:44.348Z,13.97
2022-10-01T06:00:46.649Z,14.03
2022-10-01T06:01:48.895Z,13.90
2022-10-01T06:02:52.804Z,13.88
2022-10-01T06:03:55.170Z,13.91
2022-10-01T06:04:57.314Z,13.93
2022-10-01T06:05:59.764Z,13.94
2022-10-01T06:07:02.011Z,14.10
2022-10-01T06:08:09.886Z,14.32
2022-10-01T06:09:12.733Z,14.12
2022-10-01T06:10:14.947Z,14.04
2022-10-01T06:11:17.755Z,13.94
2022-10-01T06:12:20.140Z,14.10
2022-10-01T06:13:23.102Z,13.71
2022-10-01T06:14:25.325Z,14.03
2022-10-01T06:15:28.191Z,14.06
2022-10-01T06:16:30.476Z,14.04
2022-10-01T06:17:33.284Z,14.19
2022-10-01T06:18:35.405Z,14.31
2022-10-01T06:19:37.546Z,14.25
2022-10-01T06:20:40.921Z,14.19
2022-10-01T06:21:43.053Z,14.24
2022-10-01T06:22:52.513Z,14.23
2022-10-01T06:23:55.084Z,14.17
2022-10-01T06:24:57.267Z,14.12
2022-10-01T06:26:01.033Z,14.09
2022-10-01T06:27:03.176Z,14.00
2022-10-01T06:28:06.869Z,14.16
2022-10-01T06:29:10.377Z,14.17
2022-10-01T06:30:13.634Z,13.85
2022-10-01T06:31:16.289Z,14.12
2022-10-01T06:32:19.747Z,14.20
2022-10-01T06:33:21.937Z,14.10
2022-10-01T06:34:24.034Z,14.18
2022-10-01T06:35:26.264Z,14.23
2022-10-01T06:36:28.352Z,14.18
2022-10-01T06:37:30.570Z,14.02
2022-10-01T06:38:32.698Z,14.03
2022-10-01T06:39:34.766Z,14.04
2022-10-01T06:40:37.616Z,14.26
2022-10-01T06:41:40.815Z,14.42
2022-10-01T06:44:28.966Z,14.62
2022-10-01T06:45:31.802Z,14.41
2022-10-01T06:46:33.933Z,14.21
2022-10-01T06:47:37.833Z,14.26
2022-10-01T06:48:40.002Z,14.37
2022-10-01T06:49:45.579Z,14.35
2022-10-01T06:50:52.106Z,14.54
2022-10-01T06:52:12.826Z,14.13
2022-10-01T06:53:17.368Z,14.70
2022-10-01T06:54:19.490Z,14.33
2022-10-01T06:55:29.000Z,14.60
2022-10-01T06:56:31.255Z,14.45
2022-10-01T06:57:34.286Z,14.61
2022-10-01T06:58:37.349Z,14.55
2022-10-01T06:59:39.437Z,14.67
2022-10-01T07:00:43.197Z,14.73
2022-10-01T07:01:50.233Z,14.57
2022-10-01T07:02:55.734Z,14.43
2022-10-01T07:03:59.131Z,14.52
2022-10-01T07:05:01.592Z,14.53
2022-10-01T07:06:05.331Z,14.78
2022-10-01T07:07:07.682Z,14.60
2022-10-01T07:08:09.886Z,14.49
2022-10-01T07:09:12.011Z,14.54
2022-10-01T07:10:15.102Z,14.48
2022-10-01T07:11:17.347Z,14.39
2022-10-01T07:12:20.502Z,14.49
2022-10-01T07:13:22.622Z,14.63
2022-10-01T07:14:24.850Z,14.75
2022-10-01T07:15:27.095Z,14.73
2022-10-01T07:16:29.456Z,14.97
2022-10-01T07:17:32.267Z,14.65
2022-10-01T07:18:34.455Z,14.63
2022-10-01T07:19:36.562Z,14.58
2022-10-01T07:20:40.436Z,14.81
2022-10-01T07:21:42.625Z,14.50
2022-10-01T07:22:45.332Z,14.84
2022-10-01T07:23:48.282Z,14.67
2022-10-01T07:24:51.174Z,14.74
2022-10-01T07:25:53.325Z,14.80
2022-10-01T07:26:55.668Z,14.61
2022-10-01T07:28:00.213Z,15.00
2022-10-01T07:29:02.362Z,14.79
2022-10-01T07:30:05.940Z,15.07
2022-10-01T07:31:11.689Z,15.03
2022-10-01T07:32:14.751Z,15.09
2022-10-01T07:33:19.773Z,15.22
2022-10-01T07:34:24.816Z,14.92
2022-10-01T07:35:27.096Z,15.10
2022-10-01T07:36:29.210Z,15.28
2022-10-01T07:37:31.528Z,15.15
2022-10-01T07:38:34.014Z,14.92
2022-10-01T07:39:37.068Z,15.03
2022-10-01T07:40:39.372Z,15.15
2022-10-01T07:41:42.821Z,15.16
2022-10-01T07:42:56.656Z,15.61
2022-10-01T07:43:58.737Z,15.31
2022-10-01T07:45:01.786Z,15.06
2022-10-01T07:46:07.128Z,15.19
2022-10-01T07:47:09.305Z,15.35
2022-10-01T07:48:15.049Z,15.50
2022-10-01T07:49:17.163Z,15.44
2022-10-01T07:50:19.278Z,15.37
2022-10-01T07:51:21.437Z,15.11
2022-10-01T07:52:23.592Z,15.30
2022-10-01T07:53:25.803Z,15.23
2022-10-01T07:54:28.516Z,15.11
2022-10-01T07:55:32.729Z,15.40
2022-10-01T07:56:34.862Z,15.46
2022-10-01T07:57:36.989Z,15.47
2022-10-01T07:58:39.095Z,15.50
2022-10-01T07:59:41.386Z,15.08
2022-10-01T08:00:43.621Z,15.27
2022-10-01T08:01:54.682Z,15.78
2022-10-01T08:02:57.612Z,15.43
2022-10-01T08:04:00.038Z,15.41
2022-10-01T08:05:17.435Z,15.76
2022-10-01T08:06:25.436Z,15.75
2022-10-01T08:07:27.921Z,15.44
2022-10-01T08:08:31.303Z,15.90
2022-10-01T08:09:34.004Z,15.78
2022-10-01T08:10:38.423Z,16.02
2022-10-01T08:11:40.975Z,15.79
2022-10-01T08:12:43.503Z,15.80
2022-10-01T08:13:45.815Z,15.86
2022-10-01T08:14:47.980Z,16.02
2022-10-01T08:15:53.293Z,15.89
2022-10-01T08:16:56.276Z,15.85
2022-10-01T08:18:02.688Z,16.07
2022-10-01T08:19:05.048Z,15.96
2022-10-01T08:20:10.654Z,16.32
2022-10-01T08:21:12.746Z,16.17
2022-10-01T08:22:15.011Z,16.19
2022-10-01T08:23:17.218Z,16.24
2022-10-01T08:24:19.990Z,16.11
2022-10-01T08:25:22.105Z,16.27
2022-10-01T08:26:24.173Z,16.24
2022-10-01T08:27:27.328Z,16.38
2022-10-01T08:28:29.777Z,16.17
2022-10-01T08:29:34.311Z,16.23
2022-10-01T08:30:39.856Z,16.55
2022-10-01T08:31:41.981Z,16.25
2022-10-01T08:32:44.131Z,16.25
2022-10-01T08:33:46.973Z,16.23
2022-10-01T08:34:54.528Z,16.47
2022-10-01T08:36:02.585Z,16.65
2022-10-01T08:37:04.794Z,16.56
2022-10-01T08:38:07.485Z,16.38
2022-10-01T08:39:09.745Z,16.71
2022-10-01T08:40:12.010Z,16.87
2022-10-01T08:41:23.264Z,17.30
2022-10-01T08:42:34.363Z,17.19
2022-10-01T08:43:40.730Z,17.71
2022-10-01T08:44:45.828Z,17.50
2022-10-01T08:45:54.051Z,17.88
2022-10-01T08:47:04.264Z,17.66
2022-10-01T08:48:16.657Z,17.90
2022-10-01T08:49:32.444Z,17.86
2022-10-01T08:50:54.790Z,17.87
2022-10-01T08:52:03.625Z,17.91
2022-10-01T08:53:13.866Z,17.90
2022-10-01T08:54:30.445Z,18.18
2022-10-01T08:55:36.566Z,17.91
2022-10-01T08:56:46.335Z,18.55
2022-10-01T08:57:58.991Z,18.60
2022-10-01T08:59:09.142Z,18.70
2022-10-01T09:00:14.883Z,19.27
2022-10-01T09:01:17.237Z,19.41
2022-10-01T09:02:31.782Z,19.65
2022-10-01T09:03:34.069Z,19.24
2022-10-01T09:04:36.254Z,19.17
2022-10-01T09:05:59.442Z,19.41
2022-10-01T09:07:16.689Z,19.27
2022-10-01T09:08:46.491Z,19.44
2022-10-01T09:10:00.339Z,18.95
2022-10-01T09:11:12.017Z,19.04
2022-10-01T09:12:48.910Z,19.58
2022-10-01T09:14:14.146Z,20.17
2022-10-01T09:15:32.523Z,20.60
2022-10-01T09:16:54.810Z,20.89
2022-10-01T09:18:22.252Z,22.39
2022-10-01T09:19:54.158Z,22.60
2022-10-01T09:20:58.913Z,22.18
2022-10-01T09:22:27.771Z,22.18
2022-10-01T09:23:32.078Z,21.78
2022-10-01T09:24:44.638Z,21.76
2022-10-01T09:25:50.394Z,21.19
2022-10-01T09:26:52.543Z,21.21
2022-10-01T09:28:10.808Z,22.12
2022-10-01T09:29:19.343Z,21.50
2022-10-01T09:30:24.841Z,21.43
2022-10-01T09:31:35.289Z,21.52
2022-10-01T09:32:45.352Z,21.58
2022-10-01T09:34:12.400Z,20.86
2022-10-01T09:35:30.973Z,21.17
2022-10-01T09:37:14.614Z,21.66
2022-10-01T09:38:40.170Z,22.17
2022-10-01T09:39:53.091Z,22.26
2022-10-01T09:40:56.998Z,22.92
2022-10-01T09:41:59.731Z,23.12
2022-10-01T09:43:04.071Z,24.01
2022-10-01T09:44:18.554Z,24.33
2022-10-01T09:45:22.582Z,24.38
2022-10-01T09:46:26.654Z,24.86
2022-10-01T09:47:28.775Z,25.20
2022-10-01T09:48:52.705Z,26.43
2022-10-01T09:49:55.246Z,25.96
2022-10-01T09:51:26.390Z,25.65
2022-10-01T09:52:35.091Z,26.44
2022-10-01T09:53:45.261Z,25.47
2022-10-01T09:54:53.681Z,25.14
2022-10-01T09:56:01.845Z,24.63
2022-10-01T09:57:22.680Z,23.98
2022-10-01T09:58:26.616Z,23.77
2022-10-01T09:59:34.642Z,22.88
2022-10-01T10:00:38.774Z,23.19
2022-10-01T10:01:48.962Z,23.35
2022-10-01T10:02:54.195Z,24.00
2022-10-01T10:03:57.981Z,24.77
2022-10-01T10:05:05.705Z,24.89
2022-10-01T10:06:07.854Z,24.76
2022-10-01T10:07:17.675Z,24.60
2022-10-01T10:08:30.522Z,24.44
2022-10-01T10:09:35.510Z,23.55
2022-10-01T10:10:39.954Z,22.94
2022-10-01T10:11:42.935Z,22.34
2022-10-01T10:12:46.292Z,22.49
2022-10-01T10:13:59.563Z,22.72
2022-10-01T10:15:16.412Z,22.33
2022-10-01T10:16:26.416Z,22.75
2022-10-01T10:17:28.924Z,22.85
2022-10-01T10:18:35.560Z,22.85
2022-10-01T10:19:38.473Z,22.71
2022-10-01T10:20:43.889Z,22.78
2022-10-01T10:21:54.820Z,23.53
2022-10-01T10:23:08.018Z,23.66
2022-10-01T10:24:25.115Z,23.86
2022-10-01T10:25:27.283Z,23.53
2022-10-01T10:26:34.005Z,23.41
2022-10-01T10:27:36.774Z,23.51
2022-10-01T10:28:48.291Z,23.89
2022-10-01T10:30:01.675Z,25.00
2022-10-01T10:31:10.953Z,25.42
2022-10-01T10:32:26.490Z,25.58
2022-10-01T10:33:28.737Z,25.24
2022-10-01T10:34:41.916Z,26.09
2022-10-01T10:35:44.044Z,26.07
2022-10-01T10:36:46.998Z,26.47
2022-10-01T10:37:52.095Z,27.28
2022-10-01T10:38:55.079Z,26.94
2022-10-01T10:39:58.294Z,26.55
2022-10-01T10:41:03.745Z,26.69
2022-10-01T10:42:07.202Z,28.06
2022-10-01T10:43:22.836Z,29.55
2022-10-01T10:44:31.960Z,29.30
2022-10-01T10:45:38.692Z,29.05
2022-10-01T10:46:45.243Z,28.29
2022-10-01T10:47:52.352Z,28.73
2022-10-01T10:49:05.173Z,28.27
2022-10-01T10:50:29.122Z,28.61
2022-10-01T10:51:54.340Z,29.59
2022-10-01T10:52:57.786Z,28.98
2022-10-01T10:54:00.735Z,28.06
2022-10-01T10:55:31.135Z,27.87
2022-10-01T10:56:33.583Z,26.72
2022-10-01T10:57:36.696Z,26.56
2022-10-01T10:58:40.273Z,26.77
2022-10-01T10:59:42.463Z,26.78
2022-10-01T11:00:52.539Z,27.33
2022-10-01T11:01:54.791Z,26.75
2022-10-01T11:03:00.167Z,25.97
2022-10-01T11:04:02.864Z,26.01
2022-10-01T11:05:19.212Z,24.38
2022-10-01T11:06:21.544Z,24.09
2022-10-01T11:07:26.371Z,23.98
2022-10-01T11:08:28.960Z,23.79
2022-10-01T11:09:47.514Z,23.86
2022-10-01T11:10:55.425Z,23.49
2022-10-01T11:12:12.841Z,23.01
2022-10-01T11:13:24.289Z,22.89
2022-10-01T11:14:38.205Z,22.74
2022-10-01T11:16:18.137Z,22.86
2022-10-01T11:17:41.969Z,22.64
2022-10-01T11:18:58.408Z,23.09
2022-10-01T11:20:12.569Z,24.24
2022-10-01T11:21:48.056Z,24.85
2022-10-01T11:23:03.173Z,25.80
2022-10-01T11:24:33.463Z,26.49
2022-10-01T11:26:10.728Z,25.76
2022-10-01T11:27:20.218Z,26.55
2022-10-01T11:28:45.079Z,27.40
2022-10-01T11:29:47.155Z,27.97
2022-10-01T11:31:10.551Z,28.79
2022-10-01T11:32:21.736Z,28.60
2022-10-01T11:33:55.670Z,28.64
2022-10-01T11:35:35.474Z,28.07
2022-10-01T11:36:59.322Z,29.15
2022-10-01T11:38:38.883Z,29.06
2022-10-01T11:39:44.009Z,29.09
2022-10-01T11:40:54.040Z,28.48
2022-10-01T11:42:14.520Z,28.18
2022-10-01T11:43:35.361Z,26.90
2022-10-01T11:44:56.323Z,26.48
2022-10-01T11:46:10.482Z,26.41
2022-10-01T11:47:20.715Z,26.31
2022-10-01T11:48:43.483Z,25.42
2022-10-01T11:50:00.631Z,25.20
2022-10-01T11:51:13.772Z,22.67
2022-10-01T11:52:23.577Z,19.78
2022-10-01T11:53:33.367Z,18.31
2022-10-01T11:54:43.742Z,17.57
2022-10-01T11:56:12.384Z,16.97
2022-10-01T11:57:34.308Z,16.42
2022-10-01T11:59:01.426Z,16.83
2022-10-01T12:00:10.662Z,16.76
2022-10-01T12:01:26.750Z,16.29
2022-10-01T12:02:38.739Z,16.50
2022-10-01T12:03:56.564Z,16.61
2022-10-01T12:05:04.579Z,16.49
2022-10-01T12:06:14.771Z,16.19
2022-10-01T12:07:22.149Z,16.09
2022-10-01T12:08:31.892Z,16.42
2022-10-01T12:09:49.272Z,16.45
2022-10-01T12:10:59.989Z,16.33
2022-10-01T12:12:07.203Z,16.09
2022-10-01T12:13:09.228Z,15.70
2022-10-01T12:14:17.304Z,16.13
2022-10-01T12:15:28.624Z,16.26
2022-10-01T12:16:42.960Z,16.35
2022-10-01T12:18:00.725Z,16.48
2022-10-01T12:19:09.175Z,16.59
2022-10-01T12:20:29.271Z,16.74
2022-10-01T12:21:52.698Z,16.77
2022-10-01T12:22:56.408Z,16.69
2022-10-01T12:24:05.133Z,17.04
2022-10-01T12:25:13.164Z,17.30
2022-10-01T12:26:27.336Z,16.77
2022-10-01T12:27:48.130Z,16.94
2022-10-01T12:28:59.973Z,16.95
2022-10-01T12:30:20.553Z,17.27
2022-10-01T12:31:33.411Z,17.02
2022-10-01T12:33:12.356Z,16.83
2022-10-01T12:34:23.883Z,16.60
2022-10-01T12:35:35.608Z,16.94
2022-10-01T12:36:53.153Z,16.98
2022-10-01T12:38:03.413Z,16.53
2022-10-01T12:39:08.321Z,17.03
2022-10-01T12:40:48.666Z,17.25
2022-10-01T12:42:06.772Z,17.19
2022-10-01T12:43:23.452Z,16.95
2022-10-01T12:44:49.106Z,17.33
2022-10-01T12:46:16.841Z,17.26
2022-10-01T12:47:44.101Z,18.03
2022-10-01T12:49:24.083Z,18.56
2022-10-01T12:50:53.895Z,19.12
2022-10-01T12:52:43.444Z,20.15
2022-10-01T12:54:00.604Z,20.47
2022-10-01T12:55:32.045Z,20.79
2022-10-01T12:56:39.098Z,20.15
2022-10-01T12:57:47.206Z,20.20
2022-10-01T12:59:27.455Z,20.61
2022-10-01T13:00:40.705Z,20.97
2022-10-01T13:01:58.788Z,21.40
2022-10-01T13:03:24.638Z,21.70
2022-10-01T13:05:08.774Z,21.26
2022-10-01T13:06:26.095Z,21.40
2022-10-01T13:07:40.340Z,22.11
2022-10-01T13:09:00.030Z,21.11
2022-10-01T13:10:21.558Z,22.16
2022-10-01T13:11:32.700Z,21.53
2022-10-01T13:12:50.033Z,21.68
2022-10-01T13:13:54.091Z,22.71
2022-10-01T13:14:57.659Z,22.18
2022-10-01T13:16:13.639Z,22.31
2022-10-01T13:17:34.501Z,23.13
2022-10-01T13:19:03.250Z,23.00
2022-10-01T13:20:22.217Z,23.25
2022-10-01T13:21:45.766Z,23.31
2022-10-01T13:22:55.463Z,22.83
2022-10-01T13:24:26.630Z,21.63
2022-10-01T13:25:40.813Z,22.78
2022-10-01T13:27:19.864Z,22.94
2022-10-01T13:28:40.749Z,22.76
2022-10-01T13:29:45.746Z,22.35
2022-10-01T13:31:10.188Z,22.71
2022-10-01T13:32:29.053Z,21.60
2022-10-01T13:33:32.803Z,22.11
2022-10-01T13:34:40.673Z,21.77
2022-10-01T13:35:54.419Z,21.51
2022-10-01T13:36:56.518Z,21.45
2022-10-01T13:37:59.228Z,21.77
2022-10-01T13:39:01.647Z,21.94
2022-10-01T13:40:19.376Z,22.04
2022-10-01T13:41:26.733Z,22.33
2022-10-01T13:42:36.441Z,22.10
2022-10-01T13:43:38.573Z,22.08
2022-10-01T13:44:41.224Z,22.41
2022-10-01T13:45:46.247Z,23.24
2022-10-01T13:47:06.039Z,23.64
2022-10-01T13:48:11.130Z,23.29
2022-10-01T13:49:30.041Z,22.75
2022-10-01T13:50:32.357Z,22.55
2022-10-01T13:51:39.242Z,22.43
2022-10-01T13:52:41.373Z,22.43
2022-10-01T13:53:43.436Z,22.02
2022-10-01T13:54:48.982Z,22.20
2022-10-01T13:55:53.362Z,21.51
2022-10-01T13:56:55.639Z,21.50
2022-10-01T13:58:06.826Z,21.41
2022-10-01T13:59:38.813Z,21.38
2022-10-01T14:00:53.539Z,21.20
2022-10-01T14:01:55.753Z,20.99
2022-10-01T14:03:36.789Z,21.41
2022-10-01T14:04:43.262Z,21.65
2022-10-01T14:05:47.335Z,22.08
2022-10-01T14:07:04.769Z,22.03
2022-10-01T14:08:13.052Z,21.44
2022-10-01T14:09:36.526Z,21.51
2022-10-01T14:11:04.206Z,21.07
2022-10-01T14:12:55.789Z,20.44
2022-10-01T14:14:26.905Z,20.11
2022-10-01T14:15:57.009Z,20.26
2022-10-01T14:17:00.297Z,19.57
2022-10-01T14:18:15.594Z,19.78
2022-10-01T14:19:20.109Z,19.60
2022-10-01T14:20:27.162Z,19.83
2022-10-01T14:21:38.022Z,19.93
2022-10-01T14:22:58.143Z,20.20
2022-10-01T14:24:24.911Z,20.38
2022-10-01T14:25:35.835Z,19.61
2022-10-01T14:26:58.966Z,19.70
2022-10-01T14:28:26.637Z,19.65
2022-10-01T14:29:59.991Z,19.77
2022-10-01T14:31:02.065Z,19.36
2022-10-01T14:32:31.890Z,19.68
2022-10-01T14:33:49.139Z,19.66
2022-10-01T14:35:08.790Z,20.02
2022-10-01T14:36:16.206Z,20.45
2022-10-01T14:37:19.682Z,19.43
2022-10-01T14:38:22.616Z,19.94
2022-10-01T14:39:27.276Z,20.00
2022-10-01T14:40:37.757Z,19.44
2022-10-01T14:41:40.097Z,19.00